sensor_id;sensor_type;location;lat;lon;timestamp;pressure;altitude;pressure_sealevel;temperature;humidity
16030;BME280;34770;49.272;11.070;2023-12-20T00:02:22;97566.69;;;3.77;94.07
16030;BME280;34770;49.272;11.070;2023-12-20T00:04:47;97601.16;;;3.96;94.09
16030;BME280;34770;49.272;11.070;2023-12-20T00:07:13;97601.59;;;3.90;94.55
16030;BME280;34770;49.272;11.070;2023-12-20T00:09:38;97640.84;;;4.18;94.80
16030;BME280;34770;49.272;11.070;2023-12-20T00:12:03;97625.56;;;4.05;95.53
16030;BME280;34770;49.272;11.070;2023-12-20T00:14:29;97598.91;;;3.90;96.07
16030;BME280;34770;49.272;11.070;2023-12-20T00:16:54;97579.56;;;3.85;96.33
16030;BME280;34770;49.272;11.070;2023-12-20T00:19:20;97582.91;;;3.88;96.74
16030;BME280;34770;49.272;11.070;2023-12-20T00:21:45;97595.25;;;3.91;97.00
16030;BME280;34770;49.272;11.070;2023-12-20T00:24:10;97617.53;;;4.05;98.33
16030;BME280;34770;49.272;11.070;2023-12-20T00:26:36;97603.22;;;3.92;97.99
16030;BME280;34770;49.272;11.070;2023-12-20T00:29:01;97615.63;;;3.93;98.27
16030;BME280;34770;49.272;11.070;2023-12-20T00:31:26;97614.69;;;3.94;99.17
16030;BME280;34770;49.272;11.070;2023-12-20T00:33:52;97610.63;;;4.01;99.56
16030;BME280;34770;49.272;11.070;2023-12-20T00:36:17;97567.88;;;3.73;99.64
16030;BME280;34770;49.272;11.070;2023-12-20T00:38:42;97613.94;;;3.92;99.64
16030;BME280;34770;49.272;11.070;2023-12-20T00:41:08;97593.13;;;3.96;100.00
16030;BME280;34770;49.272;11.070;2023-12-20T00:43:33;97599.34;;;3.96;100.00
16030;BME280;34770;49.272;11.070;2023-12-20T00:45:58;97593.41;;;4.05;100.00
16030;BME280;34770;49.272;11.070;2023-12-20T00:48:25;97549.16;;;3.86;100.00
16030;BME280;34770;49.272;11.070;2023-12-20T00:50:52;97596.63;;;4.10;100.00
16030;BME280;34770;49.272;11.070;2023-12-20T00:53:17;97616.31;;;4.24;100.00
16030;BME280;34770;49.272;11.070;2023-12-20T00:55:43;97593.75;;;4.14;100.00
16030;BME280;34770;49.272;11.070;2023-12-20T00:58:09;97567.97;;;3.98;100.00
16030;BME280;34770;49.272;11.070;2023-12-20T01:00:34;97600.72;;;4.16;100.00
16030;BME280;34770;49.272;11.070;2023-12-20T01:03:00;97580.34;;;4.14;100.00
16030;BME280;34770;49.272;11.070;2023-12-20T01:05:25;97607.41;;;4.23;100.00
16030;BME280;34770;49.272;11.070;2023-12-20T01:07:51;97600.13;;;4.25;100.00
16030;BME280;34770;49.272;11.070;2023-12-20T01:10:16;97561.28;;;3.91;100.00
16030;BME280;34770;49.272;11.070;2023-12-20T01:12:43;97558.88;;;4.01;100.00
16030;BME280;34770;49.272;11.070;2023-12-20T01:15:08;97535.88;;;3.84;100.00
16030;BME280;34770;49.272;11.070;2023-12-20T01:17:34;97553.91;;;3.95;100.00
16030;BME280;34770;49.272;11.070;2023-12-20T01:19:59;97583.41;;;4.07;100.00
16030;BME280;34770;49.272;11.070;2023-12-20T01:22:24;97584.75;;;4.15;100.00
16030;BME280;34770;49.272;11.070;2023-12-20T01:24:50;97544.06;;;3.95;100.00
16030;BME280;34770;49.272;11.070;2023-12-20T01:27:16;97570.28;;;4.17;100.00
16030;BME280;34770;49.272;11.070;2023-12-20T01:29:41;97522.16;;;3.89;100.00
16030;BME280;34770;49.272;11.070;2023-12-20T01:32:07;97554.91;;;4.06;100.00
16030;BME280;34770;49.272;11.070;2023-12-20T01:34:32;97570.03;;;4.07;100.00
16030;BME280;34770;49.272;11.070;2023-12-20T01:36:57;97538.63;;;3.83;100.00
16030;BME280;34770;49.272;11.070;2023-12-20T01:39:23;97571.09;;;4.05;100.00
16030;BME280;34770;49.272;11.070;2023-12-20T01:41:49;97551.44;;;3.92;100.00
16030;BME280;34770;49.272;11.070;2023-12-20T01:44:14;97584.53;;;4.18;100.00
16030;BME280;34770;49.272;11.070;2023-12-20T01:46:39;97585.03;;;4.10;100.00
16030;BME280;34770;49.272;11.070;2023-12-20T01:49:06;97553.31;;;4.04;100.00
16030;BME280;34770;49.272;11.070;2023-12-20T01:51:31;97531.25;;;3.86;100.00
16030;BME280;34770;49.272;11.070;2023-12-20T01:53:57;97547.69;;;3.94;100.00
16030;BME280;34770;49.272;11.070;2023-12-20T01:56:26;97556.00;;;4.04;100.00
16030;BME280;34770;49.272;11.070;2023-12-20T01:58:51;97590.34;;;4.24;100.00
16030;BME280;34770;49.272;11.070;2023-12-20T02:01:17;97583.34;;;4.22;100.00
16030;BME280;34770;49.272;11.070;2023-12-20T02:03:43;97527.84;;;3.97;100.00
16030;BME280;34770;49.272;11.070;2023-12-20T02:06:09;97506.94;;;3.89;100.00
16030;BME280;34770;49.272;11.070;2023-12-20T02:08:35;97569.75;;;4.25;100.00
16030;BME280;34770;49.272;11.070;2023-12-20T02:11:01;97510.91;;;3.96;100.00
16030;BME280;34770;49.272;11.070;2023-12-20T02:13:26;97501.06;;;3.97;100.00
16030;BME280;34770;49.272;11.070;2023-12-20T02:15:52;97545.19;;;4.18;100.00
16030;BME280;34770;49.272;11.070;2023-12-20T02:18:18;97559.91;;;4.25;100.00
16030;BME280;34770;49.272;11.070;2023-12-20T02:20:44;97530.59;;;3.83;100.00
16030;BME280;34770;49.272;11.070;2023-12-20T02:23:09;97516.72;;;3.76;100.00
16030;BME280;34770;49.272;11.070;2023-12-20T02:25:34;97537.88;;;3.81;100.00
16030;BME280;34770;49.272;11.070;2023-12-20T02:28:01;97544.81;;;4.10;100.00
16030;BME280;34770;49.272;11.070;2023-12-20T02:30:26;97507.09;;;3.74;100.00
16030;BME280;34770;49.272;11.070;2023-12-20T02:32:52;97553.59;;;3.99;100.00
16030;BME280;34770;49.272;11.070;2023-12-20T02:35:18;97507.59;;;3.66;100.00
16030;BME280;34770;49.272;11.070;2023-12-20T02:37:43;97523.81;;;3.77;100.00
16030;BME280;34770;49.272;11.070;2023-12-20T02:40:08;97538.38;;;4.00;100.00
16030;BME280;34770;49.272;11.070;2023-12-20T02:42:34;97534.16;;;3.96;100.00
16030;BME280;34770;49.272;11.070;2023-12-20T02:44:59;97531.59;;;3.94;100.00
16030;BME280;34770;49.272;11.070;2023-12-20T02:47:25;97515.69;;;3.79;100.00
16030;BME280;34770;49.272;11.070;2023-12-20T02:49:50;97532.59;;;4.06;100.00
16030;BME280;34770;49.272;11.070;2023-12-20T02:52:15;97546.47;;;4.13;100.00
16030;BME280;34770;49.272;11.070;2023-12-20T02:54:41;97555.41;;;4.26;100.00
16030;BME280;34770;49.272;11.070;2023-12-20T02:57:06;97500.00;;;3.99;100.00
16030;BME280;34770;49.272;11.070;2023-12-20T02:59:31;97562.50;;;4.39;100.00
16030;BME280;34770;49.272;11.070;2023-12-20T03:01:57;97513.44;;;4.12;100.00
16030;BME280;34770;49.272;11.070;2023-12-20T03:04:22;97520.50;;;4.13;100.00
16030;BME280;34770;49.272;11.070;2023-12-20T03:06:47;97486.78;;;3.96;100.00
16030;BME280;34770;49.272;11.070;2023-12-20T03:09:13;97525.25;;;4.22;100.00
16030;BME280;34770;49.272;11.070;2023-12-20T03:11:38;97467.16;;;3.83;100.00
16030;BME280;34770;49.272;11.070;2023-12-20T03:14:04;97533.81;;;4.27;100.00
16030;BME280;34770;49.272;11.070;2023-12-20T03:16:29;97532.53;;;4.20;100.00
16030;BME280;34770;49.272;11.070;2023-12-20T03:18:56;97545.63;;;4.25;100.00
16030;BME280;34770;49.272;11.070;2023-12-20T03:21:22;97531.47;;;4.23;100.00
16030;BME280;34770;49.272;11.070;2023-12-20T03:23:47;97545.94;;;4.20;100.00
16030;BME280;34770;49.272;11.070;2023-12-20T03:26:13;97539.91;;;4.17;100.00
16030;BME280;34770;49.272;11.070;2023-12-20T03:28:39;97546.16;;;4.17;100.00
16030;BME280;34770;49.272;11.070;2023-12-20T03:31:04;97508.03;;;3.99;100.00
16030;BME280;34770;49.272;11.070;2023-12-20T03:33:30;97502.78;;;3.98;100.00
16030;BME280;34770;49.272;11.070;2023-12-20T03:35:55;97496.97;;;3.91;100.00
16030;BME280;34770;49.272;11.070;2023-12-20T03:38:21;97541.00;;;4.14;100.00
16030;BME280;34770;49.272;11.070;2023-12-20T03:40:49;97498.25;;;3.86;100.00
16030;BME280;34770;49.272;11.070;2023-12-20T03:43:14;97501.25;;;3.94;100.00
16030;BME280;34770;49.272;11.070;2023-12-20T03:45:40;97505.00;;;3.91;100.00
16030;BME280;34770;49.272;11.070;2023-12-20T03:48:05;97536.69;;;4.12;100.00
16030;BME280;34770;49.272;11.070;2023-12-20T03:50:31;97508.75;;;3.89;100.00
16030;BME280;34770;49.272;11.070;2023-12-20T03:52:56;97543.78;;;4.13;100.00
16030;BME280;34770;49.272;11.070;2023-12-20T03:55:22;97503.59;;;3.86;100.00
16030;BME280;34770;49.272;11.070;2023-12-20T03:57:47;97554.59;;;4.11;100.00
16030;BME280;34770;49.272;11.070;2023-12-20T04:00:12;97500.03;;;3.73;100.00
16030;BME280;34770;49.272;11.070;2023-12-20T04:02:39;97539.13;;;4.02;100.00
16030;BME280;34770;49.272;11.070;2023-12-20T04:05:05;97554.06;;;4.06;100.00
16030;BME280;34770;49.272;11.070;2023-12-20T04:07:31;97541.53;;;4.06;100.00
16030;BME280;34770;49.272;11.070;2023-12-20T04:09:56;97502.84;;;3.84;100.00
16030;BME280;34770;49.272;11.070;2023-12-20T04:12:21;97522.47;;;3.84;100.00
16030;BME280;34770;49.272;11.070;2023-12-20T04:14:47;97534.69;;;3.88;100.00
16030;BME280;34770;49.272;11.070;2023-12-20T04:17:12;97544.00;;;3.83;100.00
16030;BME280;34770;49.272;11.070;2023-12-20T04:19:37;97568.03;;;3.84;100.00
16030;BME280;34770;49.272;11.070;2023-12-20T04:22:03;97550.22;;;3.83;100.00
16030;BME280;34770;49.272;11.070;2023-12-20T04:24:28;97532.38;;;3.70;100.00
16030;BME280;34770;49.272;11.070;2023-12-20T04:26:54;97547.22;;;3.88;100.00
16030;BME280;34770;49.272;11.070;2023-12-20T04:29:19;97570.84;;;3.95;100.00
16030;BME280;34770;49.272;11.070;2023-12-20T04:31:44;97511.44;;;3.62;100.00
16030;BME280;34770;49.272;11.070;2023-12-20T04:34:10;97509.53;;;3.64;100.00
16030;BME280;34770;49.272;11.070;2023-12-20T04:36:35;97503.97;;;3.67;100.00
16030;BME280;34770;49.272;11.070;2023-12-20T04:39:01;97532.31;;;3.84;100.00
16030;BME280;34770;49.272;11.070;2023-12-20T04:41:26;97551.03;;;3.98;100.00
16030;BME280;34770;49.272;11.070;2023-12-20T04:43:52;97558.41;;;3.94;100.00
16030;BME280;34770;49.272;11.070;2023-12-20T04:46:18;97510.81;;;3.71;100.00
16030;BME280;34770;49.272;11.070;2023-12-20T04:48:43;97524.03;;;3.74;100.00
16030;BME280;34770;49.272;11.070;2023-12-20T04:51:08;97559.28;;;3.95;100.00
16030;BME280;34770;49.272;11.070;2023-12-20T04:53:34;97536.06;;;3.81;100.00
16030;BME280;34770;49.272;11.070;2023-12-20T04:55:59;97552.94;;;3.96;100.00
16030;BME280;34770;49.272;11.070;2023-12-20T04:58:25;97531.34;;;3.85;100.00
16030;BME280;34770;49.272;11.070;2023-12-20T05:00:50;97574.75;;;4.04;100.00
16030;BME280;34770;49.272;11.070;2023-12-20T05:03:15;97577.50;;;4.02;100.00
16030;BME280;34770;49.272;11.070;2023-12-20T05:05:41;97551.75;;;3.87;100.00
16030;BME280;34770;49.272;11.070;2023-12-20T05:08:06;97578.56;;;4.00;100.00
16030;BME280;34770;49.272;11.070;2023-12-20T05:10:31;97569.72;;;3.85;100.00
16030;BME280;34770;49.272;11.070;2023-12-20T05:12:57;97596.31;;;3.88;100.00
16030;BME280;34770;49.272;11.070;2023-12-20T05:15:22;97576.25;;;3.81;100.00
16030;BME280;34770;49.272;11.070;2023-12-20T05:17:47;97556.50;;;3.70;100.00
16030;BME280;34770;49.272;11.070;2023-12-20T05:20:13;97580.19;;;3.76;100.00
16030;BME280;34770;49.272;11.070;2023-12-20T05:22:38;97610.94;;;3.97;100.00
16030;BME280;34770;49.272;11.070;2023-12-20T05:25:04;97551.91;;;3.58;100.00
16030;BME280;34770;49.272;11.070;2023-12-20T05:27:29;97606.00;;;3.77;100.00
16030;BME280;34770;49.272;11.070;2023-12-20T05:29:55;97596.72;;;3.82;100.00
16030;BME280;34770;49.272;11.070;2023-12-20T05:32:23;97586.13;;;3.81;100.00
16030;BME280;34770;49.272;11.070;2023-12-20T05:34:48;97606.69;;;3.80;100.00
16030;BME280;34770;49.272;11.070;2023-12-20T05:37:13;97613.09;;;3.78;100.00
16030;BME280;34770;49.272;11.070;2023-12-20T05:39:39;97608.59;;;3.78;100.00
16030;BME280;34770;49.272;11.070;2023-12-20T05:42:04;97607.56;;;3.81;100.00
16030;BME280;34770;49.272;11.070;2023-12-20T05:44:30;97593.88;;;3.71;100.00
16030;BME280;34770;49.272;11.070;2023-12-20T05:46:55;97563.03;;;3.51;100.00
16030;BME280;34770;49.272;11.070;2023-12-20T05:49:20;97628.88;;;3.82;100.00
16030;BME280;34770;49.272;11.070;2023-12-20T05:51:47;97590.88;;;3.49;100.00
16030;BME280;34770;49.272;11.070;2023-12-20T05:54:12;97593.47;;;3.50;100.00
16030;BME280;34770;49.272;11.070;2023-12-20T05:56:37;97585.44;;;3.50;100.00
16030;BME280;34770;49.272;11.070;2023-12-20T05:59:03;97649.25;;;3.85;100.00
16030;BME280;34770;49.272;11.070;2023-12-20T06:01:28;97617.75;;;3.62;100.00
16030;BME280;34770;49.272;11.070;2023-12-20T06:03:53;97613.47;;;3.45;100.00
16030;BME280;34770;49.272;11.070;2023-12-20T06:06:19;97641.22;;;3.71;100.00
16030;BME280;34770;49.272;11.070;2023-12-20T06:08:44;97601.97;;;3.43;100.00
16030;BME280;34770;49.272;11.070;2023-12-20T06:11:09;97649.56;;;3.66;100.00
16030;BME280;34770;49.272;11.070;2023-12-20T06:13:35;97630.16;;;3.48;100.00
16030;BME280;34770;49.272;11.070;2023-12-20T06:16:00;97652.56;;;3.62;100.00
16030;BME280;34770;49.272;11.070;2023-12-20T06:18:26;97630.84;;;3.52;100.00
16030;BME280;34770;49.272;11.070;2023-12-20T06:20:51;97598.91;;;3.21;100.00
16030;BME280;34770;49.272;11.070;2023-12-20T06:23:17;97658.47;;;3.67;100.00
16030;BME280;34770;49.272;11.070;2023-12-20T06:25:42;97600.91;;;3.31;100.00
16030;BME280;34770;49.272;11.070;2023-12-20T06:28:07;97644.34;;;3.50;100.00
16030;BME280;34770;49.272;11.070;2023-12-20T06:30:35;97626.06;;;3.43;100.00
16030;BME280;34770;49.272;11.070;2023-12-20T06:33:00;97670.81;;;3.69;100.00
16030;BME280;34770;49.272;11.070;2023-12-20T06:35:26;97668.03;;;3.71;100.00
16030;BME280;34770;49.272;11.070;2023-12-20T06:37:51;97671.19;;;3.63;100.00
16030;BME280;34770;49.272;11.070;2023-12-20T06:40:17;97631.72;;;3.38;100.00
16030;BME280;34770;49.272;11.070;2023-12-20T06:42:43;97647.09;;;3.49;100.00
16030;BME280;34770;49.272;11.070;2023-12-20T06:45:09;97660.41;;;3.50;100.00
16030;BME280;34770;49.272;11.070;2023-12-20T06:47:34;97671.19;;;3.63;100.00
16030;BME280;34770;49.272;11.070;2023-12-20T06:50:00;97679.59;;;3.71;100.00
16030;BME280;34770;49.272;11.070;2023-12-20T06:52:25;97688.44;;;3.59;100.00
16030;BME280;34770;49.272;11.070;2023-12-20T06:54:51;97682.03;;;3.62;100.00
16030;BME280;34770;49.272;11.070;2023-12-20T06:57:16;97670.25;;;3.50;100.00
16030;BME280;34770;49.272;11.070;2023-12-20T06:59:41;97661.16;;;3.53;100.00
16030;BME280;34770;49.272;11.070;2023-12-20T07:02:08;97644.03;;;3.41;100.00
16030;BME280;34770;49.272;11.070;2023-12-20T07:04:34;97692.13;;;3.71;100.00
16030;BME280;34770;49.272;11.070;2023-12-20T07:07:19;97671.56;;;3.57;100.00
16030;BME280;34770;49.272;11.070;2023-12-20T07:22:13;97706.22;;;3.60;100.00
16030;BME280;34770;49.272;11.070;2023-12-20T07:24:38;97701.22;;;3.54;100.00
16030;BME280;34770;49.272;11.070;2023-12-20T07:27:04;97698.38;;;3.57;100.00
16030;BME280;34770;49.272;11.070;2023-12-20T07:29:29;97746.50;;;3.87;100.00
16030;BME280;34770;49.272;11.070;2023-12-20T07:31:55;97704.69;;;3.56;100.00
16030;BME280;34770;49.272;11.070;2023-12-20T07:34:21;97726.78;;;3.74;100.00
16030;BME280;34770;49.272;11.070;2023-12-20T07:36:46;97711.94;;;3.54;100.00
16030;BME280;34770;49.272;11.070;2023-12-20T07:39:13;97716.66;;;3.50;100.00
16030;BME280;34770;49.272;11.070;2023-12-20T07:41:45;97741.59;;;3.79;100.00
16030;BME280;34770;49.272;11.070;2023-12-20T07:44:24;97731.56;;;3.83;100.00
16030;BME280;34770;49.272;11.070;2023-12-20T07:46:50;97705.53;;;3.57;100.00
16030;BME280;34770;49.272;11.070;2023-12-20T07:49:15;97660.59;;;3.19;100.00
16030;BME280;34770;49.272;11.070;2023-12-20T07:51:42;97771.56;;;3.86;100.00
16030;BME280;34770;49.272;11.070;2023-12-20T07:54:34;97764.09;;;3.77;100.00
16030;BME280;34770;49.272;11.070;2023-12-20T08:05:03;97761.34;;;3.78;100.00
16030;BME280;34770;49.272;11.070;2023-12-20T08:07:30;97686.31;;;3.36;100.00
16030;BME280;34770;49.272;11.070;2023-12-20T08:09:55;97761.59;;;3.88;100.00
16030;BME280;34770;49.272;11.070;2023-12-20T08:12:24;97726.31;;;3.53;100.00
16030;BME280;34770;49.272;11.070;2023-12-20T08:14:55;97786.03;;;3.83;100.00
16030;BME280;34770;49.272;11.070;2023-12-20T08:17:23;97691.94;;;3.31;100.00
16030;BME280;34770;49.272;11.070;2023-12-20T08:19:57;97743.34;;;3.80;100.00
16030;BME280;34770;49.272;11.070;2023-12-20T08:22:26;97740.75;;;3.93;100.00
16030;BME280;34770;49.272;11.070;2023-12-20T08:25:16;97726.19;;;3.97;100.00
16030;BME280;34770;49.272;11.070;2023-12-20T08:27:46;97707.16;;;3.87;100.00
16030;BME280;34770;49.272;11.070;2023-12-20T08:30:21;97667.81;;;3.74;100.00
16030;BME280;34770;49.272;11.070;2023-12-20T08:33:02;97685.72;;;3.87;100.00
16030;BME280;34770;49.272;11.070;2023-12-20T08:35:39;97686.13;;;3.81;100.00
16030;BME280;34770;49.272;11.070;2023-12-20T08:38:06;97682.63;;;3.93;100.00
16030;BME280;34770;49.272;11.070;2023-12-20T08:40:44;97691.66;;;3.92;100.00
16030;BME280;34770;49.272;11.070;2023-12-20T08:43:15;97681.50;;;3.97;100.00
16030;BME280;34770;49.272;11.070;2023-12-20T08:46:23;97763.94;;;4.49;100.00
16030;BME280;34770;49.272;11.070;2023-12-20T08:49:40;97709.03;;;4.14;100.00
16030;BME280;34770;49.272;11.070;2023-12-20T08:56:23;97726.47;;;4.47;100.00
16030;BME280;34770;49.272;11.070;2023-12-20T08:59:29;97729.41;;;4.57;100.00
16030;BME280;34770;49.272;11.070;2023-12-20T09:03:21;97691.03;;;4.42;100.00
16030;BME280;34770;49.272;11.070;2023-12-20T09:06:13;97686.00;;;4.38;100.00
16030;BME280;34770;49.272;11.070;2023-12-20T09:09:24;97794.00;;;5.07;100.00
16030;BME280;34770;49.272;11.070;2023-12-20T11:29:35;97743.34;;;5.53;78.80
16030;BME280;34770;49.272;11.070;2023-12-20T11:32:03;97667.28;;;5.15;80.89
16030;BME280;34770;49.272;11.070;2023-12-20T11:34:33;97643.81;;;4.92;79.88
16030;BME280;34770;49.272;11.070;2023-12-20T11:37:02;97617.53;;;4.97;80.73
16030;BME280;34770;49.272;11.070;2023-12-20T11:39:30;97620.41;;;4.81;80.41
16030;BME280;34770;49.272;11.070;2023-12-20T11:41:56;97662.97;;;5.12;81.24
16030;BME280;34770;49.272;11.070;2023-12-20T11:44:25;97686.38;;;5.23;80.81
16030;BME280;34770;49.272;11.070;2023-12-20T11:46:50;97649.63;;;5.11;81.64
16030;BME280;34770;49.272;11.070;2023-12-20T11:49:16;97607.53;;;4.86;83.35
16030;BME280;34770;49.272;11.070;2023-12-20T11:51:41;97665.97;;;5.20;81.89
16030;BME280;34770;49.272;11.070;2023-12-20T11:54:07;97694.97;;;5.28;82.45
16030;BME280;34770;49.272;11.070;2023-12-20T11:56:35;97664.34;;;5.05;82.69
16030;BME280;34770;49.272;11.070;2023-12-20T11:59:01;97681.56;;;5.15;81.79
16030;BME280;34770;49.272;11.070;2023-12-20T12:01:39;97649.09;;;4.93;82.20
16030;BME280;34770;49.272;11.070;2023-12-20T12:04:10;97610.19;;;4.61;82.45
16030;BME280;34770;49.272;11.070;2023-12-20T12:06:43;97691.09;;;5.19;82.87
16030;BME280;34770;49.272;11.070;2023-12-20T12:09:17;97620.50;;;4.67;82.40
16030;BME280;34770;49.272;11.070;2023-12-20T12:12:27;97623.84;;;4.71;82.31
16030;BME280;34770;49.272;11.070;2023-12-20T12:15:12;97637.38;;;4.82;82.30
16030;BME280;34770;49.272;11.070;2023-12-20T12:17:57;97622.44;;;4.65;82.51
16030;BME280;34770;49.272;11.070;2023-12-20T12:20:24;97622.22;;;4.68;83.28
16030;BME280;34770;49.272;11.070;2023-12-20T12:23:04;97618.22;;;4.61;83.29
16030;BME280;34770;49.272;11.070;2023-12-20T12:25:30;97624.28;;;4.77;83.33
16030;BME280;34770;49.272;11.070;2023-12-20T12:28:03;97622.56;;;4.89;83.25
16030;BME280;34770;49.272;11.070;2023-12-20T12:30:31;97664.38;;;5.18;82.17
16030;BME280;34770;49.272;11.070;2023-12-20T12:32:59;97647.16;;;4.95;82.73
16030;BME280;34770;49.272;11.070;2023-12-20T12:35:25;97600.88;;;4.79;82.03
16030;BME280;34770;49.272;11.070;2023-12-20T12:37:50;97609.22;;;4.75;82.73
16030;BME280;34770;49.272;11.070;2023-12-20T12:40:17;97598.69;;;4.72;82.22
16030;BME280;34770;49.272;11.070;2023-12-20T12:42:44;97596.38;;;4.80;82.58
16030;BME280;34770;49.272;11.070;2023-12-20T12:45:10;97633.94;;;4.92;82.67
16030;BME280;34770;49.272;11.070;2023-12-20T12:47:39;97651.16;;;5.15;81.81
16030;BME280;34770;49.272;11.070;2023-12-20T12:50:05;97673.41;;;5.30;81.60
16030;BME280;34770;49.272;11.070;2023-12-20T12:52:31;97606.34;;;4.78;81.35
16030;BME280;34770;49.272;11.070;2023-12-20T12:54:56;97615.25;;;4.78;80.86
16030;BME280;34770;49.272;11.070;2023-12-20T12:57:22;97616.66;;;4.84;81.46
16030;BME280;34770;49.272;11.070;2023-12-20T12:59:48;97608.50;;;4.85;81.96
16030;BME280;34770;49.272;11.070;2023-12-20T13:02:13;97664.91;;;5.23;81.05
16030;BME280;34770;49.272;11.070;2023-12-20T13:04:40;97597.44;;;4.77;81.89
16030;BME280;34770;49.272;11.070;2023-12-20T13:07:07;97599.47;;;4.86;81.66
16030;BME280;34770;49.272;11.070;2023-12-20T13:09:33;97620.09;;;4.86;81.54
16030;BME280;34770;49.272;11.070;2023-12-20T13:11:59;97607.72;;;4.71;80.45
16030;BME280;34770;49.272;11.070;2023-12-20T13:14:24;97647.25;;;4.68;82.58
16030;BME280;34770;49.272;11.070;2023-12-20T13:16:50;97626.81;;;4.66;81.40
16030;BME280;34770;49.272;11.070;2023-12-20T13:19:15;97662.94;;;4.87;82.38
16030;BME280;34770;49.272;11.070;2023-12-20T13:21:41;97644.91;;;4.77;82.55
16030;BME280;34770;49.272;11.070;2023-12-20T13:24:06;97599.97;;;4.53;82.10
16030;BME280;34770;49.272;11.070;2023-12-20T13:26:32;97625.41;;;4.60;81.61
16030;BME280;34770;49.272;11.070;2023-12-20T13:28:58;97612.53;;;4.53;81.15
16030;BME280;34770;49.272;11.070;2023-12-20T13:31:23;97605.66;;;4.49;80.92
16030;BME280;34770;49.272;11.070;2023-12-20T13:33:49;97598.25;;;4.52;81.34
16030;BME280;34770;49.272;11.070;2023-12-20T13:36:14;97621.13;;;4.58;80.94
16030;BME280;34770;49.272;11.070;2023-12-20T13:38:40;97609.31;;;4.48;80.86
16030;BME280;34770;49.272;11.070;2023-12-20T13:41:06;97670.88;;;4.89;81.36
16030;BME280;34770;49.272;11.070;2023-12-20T13:43:32;97613.06;;;4.45;80.69
16030;BME280;34770;49.272;11.070;2023-12-20T13:45:59;97613.81;;;4.47;81.10
16030;BME280;34770;49.272;11.070;2023-12-20T13:48:25;97634.66;;;4.69;81.39
16030;BME280;34770;49.272;11.070;2023-12-20T13:50:50;97601.03;;;4.51;81.33
16030;BME280;34770;49.272;11.070;2023-12-20T13:53:16;97613.06;;;4.58;80.89
16030;BME280;34770;49.272;11.070;2023-12-20T13:55:41;97618.22;;;4.61;80.54
16030;BME280;34770;49.272;11.070;2023-12-20T13:58:07;97604.38;;;4.54;80.55
16030;BME280;34770;49.272;11.070;2023-12-20T14:00:32;97658.09;;;4.80;80.72
16030;BME280;34770;49.272;11.070;2023-12-20T14:02:57;97624.38;;;4.63;80.34
16030;BME280;34770;49.272;11.070;2023-12-20T14:05:24;97604.47;;;4.53;80.81
16030;BME280;34770;49.272;11.070;2023-12-20T14:07:50;97620.91;;;4.61;79.15
16030;BME280;34770;49.272;11.070;2023-12-20T14:10:16;97606.94;;;4.56;79.28
16030;BME280;34770;49.272;11.070;2023-12-20T14:12:41;97607.16;;;4.40;79.12
16030;BME280;34770;49.272;11.070;2023-12-20T14:15:07;97603.94;;;4.48;80.09
16030;BME280;34770;49.272;11.070;2023-12-20T14:17:40;97665.50;;;4.76;80.08
16030;BME280;34770;49.272;11.070;2023-12-20T14:20:07;97643.75;;;4.54;80.70
16030;BME280;34770;49.272;11.070;2023-12-20T14:22:34;97668.03;;;4.65;81.09
16030;BME280;34770;49.272;11.070;2023-12-20T14:24:59;97665.78;;;4.59;80.86
16030;BME280;34770;49.272;11.070;2023-12-20T14:27:25;97647.38;;;4.40;81.14
16030;BME280;34770;49.272;11.070;2023-12-20T14:29:53;97611.03;;;4.22;81.15
16030;BME280;34770;49.272;11.070;2023-12-20T14:32:19;97599.66;;;4.19;81.09
16030;BME280;34770;49.272;11.070;2023-12-20T14:34:45;97618.00;;;4.25;81.72
16030;BME280;34770;49.272;11.070;2023-12-20T14:37:11;97591.72;;;4.17;81.60
16030;BME280;34770;49.272;11.070;2023-12-20T14:39:37;97638.41;;;4.54;81.46
16030;BME280;34770;49.272;11.070;2023-12-20T14:42:07;97613.91;;;4.46;81.76
16030;BME280;34770;49.272;11.070;2023-12-20T14:44:36;97572.97;;;4.17;80.85
16030;BME280;34770;49.272;11.070;2023-12-20T14:47:02;97587.09;;;4.19;80.92
16030;BME280;34770;49.272;11.070;2023-12-20T14:49:27;97658.41;;;4.75;80.42
16030;BME280;34770;49.272;11.070;2023-12-20T14:51:53;97593.13;;;4.23;81.68
16030;BME280;34770;49.272;11.070;2023-12-20T14:54:18;97579.47;;;4.13;81.58
16030;BME280;34770;49.272;11.070;2023-12-20T14:56:46;97574.22;;;4.12;80.52
16030;BME280;34770;49.272;11.070;2023-12-20T14:59:12;97596.78;;;4.22;81.03
16030;BME280;34770;49.272;11.070;2023-12-20T15:01:37;97608.69;;;4.30;81.01
16030;BME280;34770;49.272;11.070;2023-12-20T15:04:03;97575.38;;;4.07;81.01
16030;BME280;34770;49.272;11.070;2023-12-20T15:06:29;97579.13;;;4.05;81.35
16030;BME280;34770;49.272;11.070;2023-12-20T15:08:56;97562.91;;;3.94;81.83
16030;BME280;34770;49.272;11.070;2023-12-20T15:11:22;97557.81;;;4.03;81.87
16030;BME280;34770;49.272;11.070;2023-12-20T15:13:47;97572.56;;;3.96;81.79
16030;BME280;34770;49.272;11.070;2023-12-20T15:16:20;97615.19;;;4.14;82.40
16030;BME280;34770;49.272;11.070;2023-12-20T15:18:45;97562.50;;;4.00;82.14
16030;BME280;34770;49.272;11.070;2023-12-20T15:21:11;97556.25;;;3.87;82.09
16030;BME280;34770;49.272;11.070;2023-12-20T15:23:36;97575.00;;;3.87;82.07
16030;BME280;34770;49.272;11.070;2023-12-20T15:26:02;97581.00;;;3.90;83.26
16030;BME280;34770;49.272;11.070;2023-12-20T15:28:30;97579.28;;;3.89;82.77
16030;BME280;34770;49.272;11.070;2023-12-20T15:30:55;97630.22;;;4.16;82.57
16030;BME280;34770;49.272;11.070;2023-12-20T15:33:21;97604.72;;;3.96;83.11
16030;BME280;34770;49.272;11.070;2023-12-20T15:35:47;97576.66;;;3.75;83.52
16030;BME280;34770;49.272;11.070;2023-12-20T15:38:13;97586.13;;;3.81;83.77